Time;durP1;ratioP1;P1;durP2;ratioP2;P2;SDS_P1;SDS_P2;PMS_P1;PMS_P2;Temp;Humidity;BMP_temperature;BMP_pressure;BME280_temperature;BME280_humidity;BME280_pressure;Samples;Min_cycle;Max_cycle;Signal;HPM_P1;HPM_P2
2022/08/05 00:00:15;;;;;;;5.05;1.10;;;24.00;55.40;;;;;;5023181;28;20032;-57
2022/08/05 00:02:42;;;;;;;3.00;1.00;;;24.00;55.40;;;;;;5023264;28;20103;-57
2022/08/05 00:05:08;;;;;;;3.25;1.10;;;24.00;55.50;;;;;;5025260;28;20025;-57
2022/08/05 00:07:35;;;;;;;5.32;1.08;;;24.00;55.50;;;;;;5024824;28;20022;-57
2022/08/05 00:10:02;;;;;;;2.88;0.98;;;24.00;55.60;;;;;;5022648;28;20101;-57
2022/08/05 00:12:28;;;;;;;4.35;1.13;;;24.00;55.60;;;;;;5054836;28;20401;-57
2022/08/05 00:14:54;;;;;;;3.42;0.93;;;24.00;55.60;;;;;;5021240;28;20387;-57
2022/08/05 00:17:21;;;;;;;4.35;0.95;;;24.00;55.60;;;;;;5049245;28;20076;-57
2022/08/05 00:19:47;;;;;;;6.07;1.20;;;24.00;55.70;;;;;;5024224;28;20406;-57
2022/08/05 00:22:13;;;;;;;4.22;1.00;;;23.90;55.70;;;;;;5022258;28;20040;-57
2022/08/05 00:24:39;;;;;;;4.57;0.95;;;23.90;55.70;;;;;;5023626;28;20052;-58
2022/08/05 00:27:05;;;;;;;4.35;1.17;;;23.90;55.70;;;;;;5022361;28;20510;-57
2022/08/05 00:29:32;;;;;;;5.00;1.13;;;23.90;55.70;;;;;;5024702;28;20034;-57
2022/08/05 00:31:58;;;;;;;5.28;1.10;;;23.90;55.80;;;;;;5050417;28;20040;-57
2022/08/05 00:34:24;;;;;;;3.35;0.93;;;23.80;55.80;;;;;;5021176;28;20642;-57
2022/08/05 00:36:49;;;;;;;4.20;1.10;;;23.80;55.80;;;;;;5022252;28;20034;-57
2022/08/05 00:39:15;;;;;;;4.20;1.02;;;23.90;56.00;;;;;;5022206;28;20061;-57
2022/08/05 00:41:44;;;;;;;4.00;1.00;;;23.80;55.90;;;;;;5025080;28;20025;-57
2022/08/05 00:44:11;;;;;;;3.15;1.08;;;23.80;55.90;;;;;;5023235;28;20025;-57
2022/08/05 00:46:37;;;;;;;4.65;1.10;;;23.80;55.90;;;;;;5021997;28;20024;-57
2022/08/05 00:49:03;;;;;;;3.00;0.98;;;23.80;55.90;;;;;;5024494;28;20042;-57
2022/08/05 00:51:28;;;;;;;4.93;1.25;;;23.80;56.00;;;;;;5021636;28;20053;-57
2022/08/05 00:53:54;;;;;;;4.07;1.00;;;23.80;56.00;;;;;;5024718;28;20041;-57
2022/08/05 00:56:23;;;;;;;2.13;0.93;;;23.80;56.00;;;;;;5023706;28;20044;-57
2022/08/05 00:58:49;;;;;;;4.55;1.00;;;23.80;56.10;;;;;;5025093;28;20044;-57
2022/08/05 01:01:14;;;;;;;4.25;1.17;;;23.80;56.10;;;;;;5023691;28;20025;-57
2022/08/05 01:03:40;;;;;;;3.17;0.95;;;23.80;56.10;;;;;;5053059;28;20761;-57
2022/08/05 01:06:06;;;;;;;3.70;0.90;;;23.80;56.20;;;;;;5027838;28;20753;-57
2022/08/05 01:08:33;;;;;;;1.95;0.75;;;23.70;56.10;;;;;;5028551;28;20529;-57
2022/08/05 01:11:10;;;;;;;2.47;0.77;;;23.70;56.30;;;;;;5029206;28;20038;-57
2022/08/05 01:13:51;;;;;;;5.95;1.20;;;23.70;56.20;;;;;;5026125;28;20044;-57
2022/08/05 01:16:21;;;;;;;4.07;0.75;;;23.70;56.30;;;;;;5027047;28;20025;-57
2022/08/05 01:18:49;;;;;;;2.10;0.70;;;23.70;56.40;;;;;;5034622;28;20026;-57
2022/08/05 01:21:33;;;;;;;1.30;0.80;;;23.70;56.40;;;;;;5027072;28;20030;-57
2022/08/05 01:24:20;;;;;;;3.08;1.00;;;23.70;56.40;;;;;;5027649;28;20036;-57
2022/08/05 01:26:57;;;;;;;4.38;0.98;;;23.70;56.40;;;;;;5026880;28;20029;-57
2022/08/05 01:29:37;;;;;;;2.15;0.90;;;23.70;56.40;;;;;;5025632;28;20027;-57
2022/08/05 01:32:05;;;;;;;3.08;0.88;;;23.70;56.40;;;;;;5032660;28;20040;-58
2022/08/05 01:34:41;;;;;;;4.13;1.10;;;23.70;56.60;;;;;;5050650;28;20674;-57
2022/08/05 01:37:36;;;;;;;2.20;0.80;;;23.60;56.50;;;;;;5052042;28;20112;-57
2022/08/05 01:40:02;;;;;;;2.55;0.82;;;23.60;56.50;;;;;;5031024;28;20040;-57
2022/08/05 01:42:27;;;;;;;1.75;0.80;;;23.60;56.60;;;;;;5028084;28;20069;-57
2022/08/05 01:44:55;;;;;;;3.97;1.00;;;23.60;56.60;;;;;;5033819;28;20465;-58
2022/08/05 01:47:20;;;;;;;2.78;0.90;;;23.60;56.50;;;;;;5028633;28;20026;-57
2022/08/05 01:49:47;;;;;;;2.70;0.75;;;23.60;56.60;;;;;;5026565;28;20036;-57
2022/08/05 01:52:13;;;;;;;3.30;0.85;;;23.60;56.50;;;;;;5025078;28;20029;-57
2022/08/05 01:54:42;;;;;;;3.80;0.95;;;23.60;56.70;;;;;;5027319;28;20056;-57
2022/08/05 01:57:09;;;;;;;1.17;0.57;;;23.60;56.60;;;;;;5025746;28;20053;-57
2022/08/05 01:59:34;;;;;;;3.55;1.02;;;23.60;56.70;;;;;;5026541;28;20021;-58
2022/08/05 02:02:00;;;;;;;3.10;1.00;;;23.60;56.50;;;;;;5025849;28;20036;-57
2022/08/05 02:04:27;;;;;;;2.53;0.93;;;23.60;56.60;;;;;;5050172;28;20022;-57
2022/08/05 02:06:53;;;;;;;3.30;1.00;;;23.50;56.60;;;;;;5036209;28;20033;-57
2022/08/05 02:09:19;;;;;;;3.15;1.00;;;23.50;56.70;;;;;;5010315;28;20032;-58
2022/08/05 02:12:06;;;;;;;3.33;0.90;;;23.50;56.60;;;;;;5049785;28;20025;-57
2022/08/05 02:14:33;;;;;;;3.22;1.00;;;23.50;56.60;;;;;;5023660;28;20036;-57
2022/08/05 02:17:11;;;;;;;2.35;0.73;;;23.50;56.60;;;;;;5027080;28;20025;-57
2022/08/05 02:19:38;;;;;;;2.85;0.98;;;23.50;56.60;;;;;;5040175;28;20025;-57
2022/08/05 02:22:35;;;;;;;3.47;0.82;;;23.50;56.60;;;;;;5026561;28;20041;-57
2022/08/05 02:25:18;;;;;;;2.63;0.80;;;23.50;56.50;;;;;;5025464;28;20529;-58
2022/08/05 02:27:47;;;;;;;4.68;1.10;;;23.50;56.70;;;;;;5025053;28;20029;-57
2022/08/05 02:30:14;;;;;;;4.28;1.00;;;23.50;56.60;;;;;;5023296;28;20548;-57
2022/08/05 02:32:39;;;;;;;3.80;1.05;;;23.50;56.70;;;;;;5049588;28;20033;-58
2022/08/05 02:35:08;;;;;;;2.22;0.95;;;23.50;56.70;;;;;;5026147;28;20418;-57
2022/08/05 02:37:34;;;;;;;3.22;0.90;;;23.50;56.60;;;;;;5023275;28;20064;-57
2022/08/05 02:40:00;;;;;;;2.95;0.88;;;23.50;56.60;;;;;;5022395;28;20030;-58
2022/08/05 02:42:26;;;;;;;2.40;0.90;;;23.50;56.70;;;;;;5039972;28;20132;-57
2022/08/05 02:44:52;;;;;;;3.00;0.98;;;23.50;56.70;;;;;;5026842;28;20525;-57
2022/08/05 02:47:17;;;;;;;2.20;0.70;;;23.50;56.70;;;;;;5025953;28;20112;-57
2022/08/05 02:49:43;;;;;;;1.48;0.77;;;23.40;56.70;;;;;;5026723;28;20061;-57
2022/08/05 02:52:13;;;;;;;2.53;1.10;;;23.40;56.60;;;;;;5025688;28;20044;-57
2022/08/05 02:54:39;;;;;;;2.08;0.75;;;23.40;56.70;;;;;;5026492;28;20411;-57
2022/08/05 02:57:07;;;;;;;2.53;0.80;;;23.40;56.70;;;;;;5040425;28;20037;-57
2022/08/05 02:59:33;;;;;;;2.55;0.88;;;23.40;56.60;;;;;;5026222;28;20021;-57
2022/08/05 03:01:59;;;;;;;2.55;0.90;;;23.40;56.70;;;;;;5022271;28;20041;-57
2022/08/05 03:04:25;;;;;;;1.55;0.70;;;23.40;56.70;;;;;;5026787;28;20036;-57
2022/08/05 03:06:50;;;;;;;3.63;0.82;;;23.40;56.70;;;;;;5049737;28;20037;-57
2022/08/05 03:09:16;;;;;;;2.80;0.98;;;23.40;56.70;;;;;;5010043;28;20032;-57
2022/08/05 03:11:45;;;;;;;2.25;0.90;;;23.40;56.70;;;;;;5024738;28;20401;-57
2022/08/05 03:14:11;;;;;;;1.98;0.80;;;23.30;56.60;;;;;;5026126;28;20580;-57
2022/08/05 03:16:36;;;;;;;3.88;1.00;;;23.40;56.70;;;;;;5026469;28;20025;-57
2022/08/05 03:19:03;;;;;;;2.03;0.80;;;23.30;56.70;;;;;;5025150;28;20037;-57
2022/08/05 03:21:29;;;;;;;1.20;0.60;;;23.30;56.70;;;;;;5024722;28;20064;-57
2022/08/05 03:23:54;;;;;;;2.55;0.80;;;23.40;56.70;;;;;;5024295;28;20041;-57
2022/08/05 03:26:20;;;;;;;2.78;0.90;;;23.30;56.70;;;;;;5050750;28;20053;-57
2022/08/05 03:28:46;;;;;;;2.38;1.00;;;23.30;56.60;;;;;;5024957;28;20068;-57
2022/08/05 03:31:11;;;;;;;3.88;0.80;;;23.30;56.70;;;;;;5026411;28;20067;-57
2022/08/05 03:33:38;;;;;;;1.85;0.77;;;23.30;56.70;;;;;;5034618;28;20083;-57
2022/08/05 03:36:04;;;;;;;3.60;1.15;;;23.30;56.70;;;;;;5050751;28;20040;-57
2022/08/05 03:38:30;;;;;;;2.63;0.75;;;23.30;56.80;;;;;;5023964;28;20048;-57
2022/08/05 03:40:55;;;;;;;1.85;0.80;;;23.30;56.80;;;;;;5025982;28;20439;-57
2022/08/05 03:43:24;;;;;;;2.58;0.90;;;23.30;56.80;;;;;;5024674;28;20561;-57
2022/08/05 03:45:51;;;;;;;2.03;0.88;;;23.20;56.70;;;;;;5026004;28;20405;-57
2022/08/05 03:48:18;;;;;;;1.67;0.60;;;23.20;56.70;;;;;;5025774;28;20494;-57
2022/08/05 03:50:59;;;;;;;2.67;0.90;;;23.20;57.80;;;;;;5025476;28;20068;-57
2022/08/05 03:53:36;;;;;;;0.80;0.60;;;23.20;56.80;;;;;;5023640;28;20371;-57
2022/08/05 03:56:11;;;;;;;2.42;0.85;;;23.20;56.70;;;;;;5006051;28;20083;-58
2022/08/05 03:58:37;;;;;;;1.95;0.82;;;23.20;56.80;;;;;;5022519;28;20074;-57
2022/08/05 04:01:04;;;;;;;2.47;0.85;;;23.20;56.90;;;;;;5050928;28;20060;-57
2022/08/05 04:03:34;;;;;;;3.72;0.90;;;23.20;56.80;;;;;;5024445;28;20601;-57
2022/08/05 04:06:00;;;;;;;1.45;0.60;;;23.20;56.80;;;;;;5025536;28;20041;-58
2022/08/05 04:08:26;;;;;;;2.25;0.63;;;23.20;57.00;;;;;;5048853;28;20057;-57
2022/08/05 04:10:52;;;;;;;0.85;0.60;;;23.20;56.80;;;;;;5025480;28;20115;-57
2022/08/05 04:13:20;;;;;;;3.03;0.90;;;23.20;56.90;;;;;;5040113;28;20025;-57
2022/08/05 04:15:46;;;;;;;2.20;0.85;;;23.20;56.90;;;;;;5024441;28;20033;-57
2022/08/05 04:18:11;;;;;;;3.58;0.63;;;23.20;57.00;;;;;;5052214;28;20038;-57
2022/08/05 04:20:37;;;;;;;1.15;0.65;;;23.20;56.80;;;;;;5023789;28;20033;-57
2022/08/05 04:23:03;;;;;;;1.35;0.70;;;23.10;56.90;;;;;;5025160;28;20033;-57
2022/08/05 04:25:29;;;;;;;2.30;1.02;;;23.10;56.90;;;;;;5025415;28;20021;-57
2022/08/05 04:27:54;;;;;;;2.17;0.80;;;23.10;56.90;;;;;;5026234;28;20022;-57
2022/08/05 04:30:22;;;;;;;1.65;0.90;;;23.10;57.00;;;;;;5023306;28;20049;-58
2022/08/05 04:32:47;;;;;;;2.05;0.80;;;23.10;56.90;;;;;;5022176;28;20102;-57
2022/08/05 04:35:13;;;;;;;1.38;0.65;;;23.10;57.00;;;;;;5024144;28;20029;-58
2022/08/05 04:37:39;;;;;;;1.95;0.73;;;23.10;57.00;;;;;;5026779;28;20033;-57
2022/08/05 04:40:05;;;;;;;2.13;0.90;;;23.10;57.00;;;;;;5026413;28;20112;-57
2022/08/05 04:42:32;;;;;;;1.33;0.80;;;23.10;57.00;;;;;;5029343;28;20048;-57
2022/08/05 04:44:58;;;;;;;2.45;0.77;;;23.10;57.10;;;;;;5051501;28;20029;-57
2022/08/05 04:47:24;;;;;;;2.70;0.85;;;23.10;57.10;;;;;;5026562;28;20043;-58
2022/08/05 04:49:49;;;;;;;3.03;1.00;;;23.10;57.10;;;;;;5027385;28;20125;-57
2022/08/05 04:52:15;;;;;;;1.73;0.65;;;23.10;57.10;;;;;;5027326;28;20033;-57
2022/08/05 04:54:41;;;;;;;1.92;0.90;;;23.10;57.10;;;;;;5027489;28;20091;-57
2022/08/05 04:57:06;;;;;;;1.42;0.75;;;23.10;57.10;;;;;;5024724;28;20042;-57
2022/08/05 04:59:32;;;;;;;1.58;0.80;;;23.00;57.10;;;;;;5024158;28;20017;-57
2022/08/05 05:01:58;;;;;;;2.25;0.90;;;23.00;57.10;;;;;;5028540;28;20041;-57
2022/08/05 05:04:23;;;;;;;1.40;0.70;;;23.00;57.20;;;;;;5027558;28;20397;-57
2022/08/05 05:06:49;;;;;;;1.42;0.65;;;23.00;57.20;;;;;;5026739;28;20458;-57
2022/08/05 05:09:15;;;;;;;2.47;0.70;;;23.00;57.10;;;;;;5025619;28;20018;-57
2022/08/05 05:11:40;;;;;;;2.05;1.05;;;23.00;57.10;;;;;;5026924;28;20025;-57
2022/08/05 05:14:07;;;;;;;2.33;1.00;;;23.00;57.40;;;;;;5024751;28;20093;-57
2022/08/05 05:16:32;;;;;;;2.35;0.80;;;23.00;57.50;;;;;;5029015;28;20037;-57
2022/08/05 05:18:58;;;;;;;3.58;1.10;;;23.00;57.60;;;;;;5028459;28;20040;-57
2022/08/05 05:21:24;;;;;;;5.15;1.10;;;23.00;57.60;;;;;;5028249;28;20033;-57
2022/08/05 05:23:49;;;;;;;2.40;0.90;;;23.00;57.60;;;;;;5027221;28;20021;-57
2022/08/05 05:26:15;;;;;;;4.00;1.00;;;23.00;57.70;;;;;;5024918;28;20072;-57
2022/08/05 05:28:41;;;;;;;6.05;0.95;;;23.00;57.70;;;;;;5025128;28;20018;-57
2022/08/05 05:31:06;;;;;;;2.58;0.70;;;23.00;57.70;;;;;;5027161;28;20501;-57
2022/08/05 05:33:32;;;;;;;2.35;1.00;;;23.00;58.90;;;;;;5027606;28;20414;-57
2022/08/05 05:35:58;;;;;;;3.22;1.02;;;23.00;57.80;;;;;;5027604;28;20462;-57
2022/08/05 05:38:23;;;;;;;6.22;1.20;;;23.00;57.70;;;;;;5027276;28;20040;-57
2022/08/05 05:40:49;;;;;;;2.67;0.80;;;23.00;57.70;;;;;;5028469;28;20108;-57
2022/08/05 05:43:14;;;;;;;3.65;1.00;;;23.00;57.80;;;;;;5027207;28;20031;-57
2022/08/05 05:45:40;;;;;;;5.00;1.05;;;23.00;57.80;;;;;;5027437;28;20148;-57
2022/08/05 05:48:06;;;;;;;3.03;0.82;;;23.00;57.80;;;;;;5024158;28;20038;-57
2022/08/05 05:50:32;;;;;;;3.67;1.10;;;22.90;57.80;;;;;;5026681;28;20040;-57
2022/08/05 05:52:57;;;;;;;2.35;1.10;;;23.00;57.80;;;;;;5027129;28;20029;-57
2022/08/05 05:55:23;;;;;;;3.90;0.80;;;22.90;57.80;;;;;;5027479;28;20095;-57
2022/08/05 05:57:49;;;;;;;4.20;1.13;;;22.90;57.80;;;;;;5028007;28;20053;-57
2022/08/05 06:00:16;;;;;;;4.80;1.20;;;22.90;57.90;;;;;;5028155;28;20029;-57
2022/08/05 06:02:42;;;;;;;7.00;0.90;;;22.90;57.90;;;;;;5027833;28;20498;-57
2022/08/05 06:05:09;;;;;;;4.28;1.00;;;22.90;57.90;;;;;;5028328;28;20108;-57
2022/08/05 06:07:34;;;;;;;2.88;0.80;;;22.90;57.90;;;;;;5027308;28;20108;-57
2022/08/05 06:10:00;;;;;;;2.88;1.00;;;22.90;57.90;;;;;;5028023;28;20108;-58
2022/08/05 06:12:26;;;;;;;4.10;0.80;;;22.90;57.90;;;;;;5026835;28;20032;-57
2022/08/05 06:14:51;;;;;;;3.20;1.00;;;22.90;57.90;;;;;;5027181;28;20565;-57
2022/08/05 06:17:17;;;;;;;4.25;1.13;;;22.90;57.90;;;;;;5027995;28;20033;-57
2022/08/05 06:19:43;;;;;;;5.95;1.20;;;22.90;58.00;;;;;;5026635;28;20087;-57
2022/08/05 06:22:08;;;;;;;3.50;1.10;;;22.90;58.00;;;;;;5027733;28;20049;-57
2022/08/05 06:24:34;;;;;;;3.83;1.30;;;22.90;58.00;;;;;;5026121;28;20114;-57
2022/08/05 06:27:00;;;;;;;3.22;1.20;;;22.90;58.00;;;;;;5025279;28;20041;-57
2022/08/05 06:29:26;;;;;;;4.47;1.10;;;22.90;58.00;;;;;;5027666;28;20017;-57
2022/08/05 06:31:52;;;;;;;4.28;1.00;;;22.90;58.00;;;;;;5026628;28;20025;-57
2022/08/05 06:34:17;;;;;;;2.90;0.90;;;22.90;58.10;;;;;;5026744;28;20029;-57
2022/08/05 06:36:43;;;;;;;4.72;1.17;;;22.90;58.00;;;;;;5025635;28;20030;-57
2022/08/05 06:39:08;;;;;;;5.55;1.13;;;22.90;58.00;;;;;;5025690;28;20021;-57
2022/08/05 06:41:34;;;;;;;2.60;0.93;;;22.90;58.10;;;;;;5027608;28;20041;-57
2022/08/05 06:44:00;;;;;;;1.90;0.75;;;22.90;58.10;;;;;;5059214;28;20033;-58
2022/08/05 06:46:25;;;;;;;5.05;1.00;;;22.90;58.00;;;;;;5027007;28;20026;-57
2022/08/05 06:48:51;;;;;;;6.55;1.02;;;22.90;58.10;;;;;;5026262;28;20025;-57
2022/08/05 06:51:17;;;;;;;2.92;1.00;;;22.90;58.10;;;;;;5026664;28;20057;-57
2022/08/05 06:53:42;;;;;;;3.85;1.10;;;22.90;58.10;;;;;;5052537;28;20021;-57
2022/08/05 06:56:08;;;;;;;3.92;1.13;;;22.90;58.10;;;;;;5022101;28;20049;-57
2022/08/05 06:58:34;;;;;;;5.28;1.20;;;22.90;58.20;;;;;;5053223;28;20030;-57
2022/08/05 07:01:00;;;;;;;2.67;0.93;;;22.90;58.10;;;;;;5024212;28;20029;-57
2022/08/05 07:03:27;;;;;;;3.85;1.15;;;22.80;58.20;;;;;;5025589;28;20037;-57
2022/08/05 07:05:53;;;;;;;3.13;0.95;;;22.90;58.40;;;;;;5027397;28;20041;-57
2022/08/05 07:08:23;;;;;;;3.95;0.93;;;22.80;58.30;;;;;;5026420;28;20375;-57
2022/08/05 07:10:49;;;;;;;5.50;1.20;;;22.90;58.50;;;;;;5026914;28;20110;-57
2022/08/05 07:18:43;;;;;;;4.33;1.17;;;22.80;58.70;;;;;;5027074;28;20113;-58
2022/08/05 07:21:09;;;;;;;3.53;1.13;;;22.90;58.90;;;;;;5027057;28;20026;-57
2022/08/05 07:23:36;;;;;;;2.00;0.80;;;22.80;59.00;;;;;;5026752;28;20037;-57
2022/08/05 07:26:02;;;;;;;4.88;1.10;;;22.90;59.20;;;;;;5024143;28;20033;-57
2022/08/05 07:28:28;;;;;;;5.05;1.17;;;22.90;59.20;;;;;;5026559;28;20411;-57
2022/08/05 07:30:54;;;;;;;2.90;0.95;;;22.90;59.30;;;;;;5024986;28;20026;-57
2022/08/05 07:33:20;;;;;;;2.85;0.90;;;22.80;59.40;;;;;;5019566;28;20613;-58
2022/08/05 07:35:46;;;;;;;2.20;0.90;;;22.80;59.40;;;;;;5022462;28;20033;-57
2022/08/05 07:38:15;;;;;;;2.17;0.90;;;22.90;59.40;;;;;;5025075;28;20109;-58
2022/08/05 07:40:42;;;;;;;3.13;1.15;;;22.90;59.50;;;;;;5026379;28;20037;-58
2022/08/05 07:43:08;;;;;;;4.35;1.02;;;22.90;59.50;;;;;;5025532;28;20110;-57
2022/08/05 07:45:34;;;;;;;4.57;1.10;;;23.00;59.30;;;;;;5022982;28;20057;-57
2022/08/05 07:48:02;;;;;;;4.35;1.13;;;23.00;59.10;;;;;;5021853;28;20029;-59
2022/08/05 07:50:28;;;;;;;5.00;1.00;;;23.00;59.00;;;;;;5023653;28;20028;-57
2022/08/05 07:52:54;;;;;;;3.72;1.02;;;23.00;58.80;;;;;;5028622;28;20033;-57
2022/08/05 07:55:19;;;;;;;4.25;1.10;;;23.00;58.70;;;;;;5022546;28;21775;-57
2022/08/05 07:57:45;;;;;;;4.20;1.20;;;23.00;58.50;;;;;;5024111;28;21596;-57
2022/08/05 08:00:13;;;;;;;3.83;1.10;;;23.00;58.30;;;;;;5023320;28;20646;-57
2022/08/05 08:02:39;;;;;;;9.80;1.83;;;23.10;58.20;;;;;;5028522;28;20037;-57
2022/08/05 08:05:05;;;;;;;9.93;1.88;;;23.10;60.10;;;;;;5024132;28;20055;-58
2022/08/05 08:07:30;;;;;;;6.95;1.48;;;23.10;58.40;;;;;;5025474;28;20025;-58
2022/08/05 08:09:56;;;;;;;8.98;2.00;;;23.00;58.10;;;;;;5024616;28;20051;-58
2022/08/05 08:12:23;;;;;;;11.15;2.25;;;23.10;58.50;;;;;;5031070;28;20044;-58
2022/08/05 08:14:48;;;;;;;9.48;2.10;;;23.10;58.50;;;;;;5031877;28;20026;-58
2022/08/05 08:17:14;;;;;;;10.70;2.05;;;23.10;58.60;;;;;;5028055;28;20037;-57
2022/08/05 08:19:40;;;;;;;9.80;2.30;;;23.20;58.60;;;;;;5030362;28;20772;-58
2022/08/05 08:22:06;;;;;;;9.98;2.00;;;23.20;58.50;;;;;;5029301;28;20034;-58
2022/08/05 08:24:32;;;;;;;11.52;2.17;;;23.20;58.50;;;;;;5030112;28;20514;-57
2022/08/05 08:26:58;;;;;;;9.07;1.90;;;23.20;58.60;;;;;;5030123;28;20079;-58
2022/08/05 08:29:23;;;;;;;9.45;1.92;;;23.20;58.50;;;;;;5030356;28;20026;-58
2022/08/05 08:31:49;;;;;;;9.40;2.20;;;23.30;58.60;;;;;;5028923;28;20104;-58
2022/08/05 08:34:21;;;;;;;8.90;2.28;;;23.30;58.60;;;;;;5029920;28;20021;-57
2022/08/05 08:36:47;;;;;;;8.85;2.17;;;23.30;58.60;;;;;;5026961;28;20057;-58
2022/08/05 08:39:13;;;;;;;7.95;2.17;;;23.30;58.60;;;;;;5030468;28;20102;-58
2022/08/05 08:41:41;;;;;;;11.90;2.60;;;23.30;58.60;;;;;;5029193;28;20069;-57
2022/08/05 08:44:07;;;;;;;13.38;2.75;;;23.30;58.60;;;;;;5055600;28;20033;-58
2022/08/05 08:46:33;;;;;;;9.80;2.50;;;23.30;58.60;;;;;;5029254;28;20037;-57
2022/08/05 08:48:59;;;;;;;11.20;2.70;;;23.30;58.50;;;;;;5051790;28;20033;-57
2022/08/05 08:51:26;;;;;;;10.98;2.70;;;23.40;58.60;;;;;;5027637;28;20039;-57
2022/08/05 08:53:52;;;;;;;9.45;2.70;;;23.40;58.50;;;;;;5053743;28;20033;-58
2022/08/05 08:56:19;;;;;;;10.07;2.33;;;23.40;58.50;;;;;;5026488;28;20048;-58
2022/08/05 08:58:45;;;;;;;9.30;2.45;;;23.40;58.50;;;;;;5033516;28;20401;-58
2022/08/05 09:01:11;;;;;;;7.90;2.72;;;23.40;58.50;;;;;;5028411;28;20017;-58
2022/08/05 09:03:37;;;;;;;10.05;2.55;;;23.50;58.50;;;;;;5026412;28;20041;-58
2022/08/05 09:06:03;;;;;;;10.07;2.22;;;23.50;58.40;;;;;;5031980;28;20025;-58
2022/08/05 09:08:29;;;;;;;10.50;2.58;;;23.50;58.40;;;;;;5029641;28;20513;-57
2022/08/05 09:10:55;;;;;;;10.85;2.72;;;23.50;58.30;;;;;;5028781;28;20087;-58
2022/08/05 09:13:21;;;;;;;10.98;2.63;;;23.50;58.30;;;;;;5027840;28;20033;-59
2022/08/05 09:15:46;;;;;;;9.55;2.75;;;23.50;58.20;;;;;;5058000;28;20026;-57
2022/08/05 09:18:12;;;;;;;10.85;2.80;;;23.50;58.10;;;;;;5032625;28;20111;-58
2022/08/05 09:20:40;;;;;;;11.93;2.85;;;23.50;58.10;;;;;;5025590;28;20029;-58
2022/08/05 09:23:13;;;;;;;8.77;2.58;;;23.50;58.20;;;;;;5027524;28;20053;-58
2022/08/05 09:25:40;;;;;;;9.23;2.65;;;23.60;58.20;;;;;;5028495;28;20026;-58
2022/08/05 09:28:14;;;;;;;10.10;2.83;;;23.60;58.20;;;;;;5028679;28;20043;-58
2022/08/05 09:31:23;;;;;;;10.23;2.55;;;23.60;58.00;;;;;;5029028;28;20029;-58
2022/08/05 09:34:15;;;;;;;8.27;2.50;;;23.60;57.90;;;;;;5027642;28;20029;-58
2022/08/05 09:36:52;;;;;;;10.32;2.65;;;23.70;58.00;;;;;;5023565;28;20509;-59
2022/08/05 09:39:18;;;;;;;8.77;3.00;;;23.70;57.90;;;;;;5029691;28;20634;-59
2022/08/05 09:41:58;;;;;;;8.15;2.78;;;23.70;57.80;;;;;;5028461;28;20030;-58
2022/08/05 09:44:49;;;;;;;10.70;2.63;;;23.70;57.80;;;;;;5027243;28;20043;-58
2022/08/05 09:47:16;;;;;;;9.38;2.50;;;23.70;57.80;;;;;;5026424;28;20522;-58
2022/08/05 09:49:54;;;;;;;8.48;2.28;;;23.80;57.80;;;;;;5051007;28;20105;-58
2022/08/05 09:52:20;;;;;;;8.68;2.45;;;23.80;57.80;;;;;;5047331;28;20053;-58
2022/08/05 09:55:09;;;;;;;10.55;2.47;;;23.80;57.70;;;;;;5027077;28;20053;-58
2022/08/05 09:57:39;;;;;;;8.30;2.50;;;23.80;57.60;;;;;;5030334;28;20048;-58
2022/08/05 10:00:17;;;;;;;9.05;2.40;;;23.90;57.60;;;;;;5024868;28;20028;-58
2022/08/05 10:02:47;;;;;;;7.63;2.20;;;23.90;57.60;;;;;;5029363;28;20040;-58
2022/08/05 10:05:21;;;;;;;9.63;2.63;;;23.90;57.60;;;;;;5025378;28;20112;-58
2022/08/05 10:07:57;;;;;;;9.00;2.45;;;23.90;57.40;;;;;;5027243;28;20045;-58
2022/08/05 10:10:27;;;;;;;8.23;2.63;;;24.00;57.40;;;;;;5028298;28;20040;-58
2022/08/05 10:12:54;;;;;;;8.90;2.60;;;24.00;57.30;;;;;;5026988;28;20041;-59
2022/08/05 10:15:24;;;;;;;12.10;2.65;;;24.00;57.20;;;;;;5027198;28;20128;-59
2022/08/05 10:18:13;;;;;;;9.60;2.40;;;24.00;57.10;;;;;;5026819;28;20014;-58
2022/08/05 10:20:48;;;;;;;7.35;2.40;;;24.00;57.10;;;;;;5024898;28;20029;-59
2022/08/05 10:23:22;;;;;;;6.90;2.28;;;24.00;57.00;;;;;;5026160;28;20107;-58
2022/08/05 10:25:48;;;;;;;8.82;2.30;;;24.00;56.90;;;;;;5010531;28;20026;-59
2022/08/05 10:28:15;;;;;;;9.05;2.20;;;24.10;56.90;;;;;;5027505;28;20022;-59
2022/08/05 10:30:41;;;;;;;7.18;2.17;;;24.10;56.70;;;;;;5027098;28;20028;-59
2022/08/05 10:33:10;;;;;;;7.82;2.33;;;24.10;56.60;;;;;;5023892;28;20406;-57
2022/08/05 10:35:36;;;;;;;10.02;2.58;;;24.10;56.60;;;;;;5026112;28;20040;-58
2022/08/05 10:38:02;;;;;;;8.15;2.10;;;24.10;56.70;;;;;;5027475;28;20049;-58
2022/08/05 10:40:47;;;;;;;7.38;2.00;;;24.10;56.50;;;;;;5025962;28;20510;-58
2022/08/05 10:43:40;;;;;;;7.93;2.30;;;24.10;56.40;;;;;;5051903;28;20100;-58
2022/08/05 10:46:07;;;;;;;9.23;2.33;;;24.20;56.30;;;;;;5028456;28;20110;-58
2022/08/05 10:48:40;;;;;;;7.40;2.50;;;24.20;56.30;;;;;;5028974;28;20033;-58
2022/08/05 10:51:11;;;;;;;7.78;1.90;;;24.20;56.20;;;;;;5026884;28;20030;-58
2022/08/05 10:53:42;;;;;;;9.15;2.33;;;24.20;56.10;;;;;;5026937;28;20109;-58
2022/08/05 10:56:11;;;;;;;8.77;2.05;;;24.30;56.10;;;;;;5025304;28;20050;-58
2022/08/05 10:58:47;;;;;;;8.55;2.40;;;24.30;56.10;;;;;;5026883;28;20055;-59
2022/08/05 11:01:13;;;;;;;7.32;2.20;;;24.30;56.10;;;;;;5010403;28;20021;-59
2022/08/05 11:04:00;;;;;;;8.23;1.83;;;24.30;55.90;;;;;;5051787;28;20044;-59
2022/08/05 11:06:27;;;;;;;5.70;1.92;;;24.30;55.90;;;;;;5024502;28;20108;-58
2022/08/05 11:09:21;;;;;;;9.45;2.53;;;24.40;55.80;;;;;;5025999;28;20192;-58
2022/08/05 11:11:49;;;;;;;7.97;2.22;;;24.40;55.70;;;;;;5025308;28;20029;-58
2022/08/05 11:14:23;;;;;;;7.65;2.20;;;24.40;55.60;;;;;;5026872;28;20022;-59
2022/08/05 11:17:26;;;;;;;8.35;2.15;;;24.40;55.60;;;;;;5028717;28;20035;-59
2022/08/05 11:19:52;;;;;;;7.35;2.10;;;24.40;55.50;;;;;;5025732;28;20038;-58
2022/08/05 11:22:36;;;;;;;5.57;1.95;;;24.40;55.40;;;;;;5024572;28;20404;-58
2022/08/05 11:25:30;;;;;;;5.18;1.70;;;24.50;55.40;;;;;;5026165;28;20112;-57
2022/08/05 11:28:17;;;;;;;6.20;2.00;;;24.50;55.20;;;;;;5026509;28;20126;-58
2022/08/05 11:31:00;;;;;;;5.70;1.95;;;24.50;55.20;;;;;;5025519;28;20021;-58
2022/08/05 11:33:30;;;;;;;7.20;1.70;;;24.50;55.10;;;;;;5023875;28;20026;-58
2022/08/05 11:36:02;;;;;;;8.38;2.03;;;24.50;54.90;;;;;;5023207;28;20101;-58
2022/08/05 11:38:43;;;;;;;8.55;2.15;;;24.60;54.80;;;;;;5029140;28;20399;-59
2022/08/05 11:41:19;;;;;;;6.90;1.98;;;24.60;54.80;;;;;;5027341;28;20134;-58
2022/08/05 11:43:57;;;;;;;8.07;1.90;;;24.60;54.50;;;;;;5028029;28;20119;-58
2022/08/05 11:46:27;;;;;;;6.10;1.88;;;24.60;54.60;;;;;;5026301;28;20030;-58
2022/08/05 11:48:53;;;;;;;6.72;1.80;;;24.60;54.50;;;;;;5025192;28;20037;-58
2022/08/05 11:51:19;;;;;;;6.35;2.00;;;24.60;54.50;;;;;;5029624;28;20037;-58
2022/08/05 11:53:45;;;;;;;4.72;1.73;;;24.60;54.40;;;;;;5025297;28;20471;-59
2022/08/05 11:56:11;;;;;;;6.07;2.10;;;24.70;54.20;;;;;;5027994;28;20429;-58
2022/08/05 11:58:41;;;;;;;8.32;1.90;;;24.70;54.50;;;;;;5025958;28;20033;-58
2022/08/05 12:01:08;;;;;;;13.10;2.13;;;24.70;54.40;;;;;;5024286;28;20045;-58
2022/08/05 12:04:00;;;;;;;8.75;1.88;;;24.70;54.50;;;;;;5025119;28;20486;-59
2022/08/05 12:06:28;;;;;;;7.82;1.95;;;24.60;52.10;;;;;;5021413;28;20030;-58
2022/08/05 12:08:56;;;;;;;9.50;1.60;;;24.40;50.60;;;;;;5021182;28;20041;-58
2022/08/05 12:11:25;;;;;;;8.45;1.67;;;24.40;50.10;;;;;;5022672;28;20030;-59
2022/08/05 12:14:07;;;;;;;9.55;1.95;;;24.40;49.90;;;;;;5021606;28;20025;-58
2022/08/05 12:16:38;;;;;;;9.25;1.60;;;24.40;49.30;;;;;;5021215;28;20120;-58
2022/08/05 12:19:08;;;;;;;9.32;1.48;;;24.40;50.10;;;;;;5021078;28;20029;-59
2022/08/05 12:21:40;;;;;;;13.10;1.80;;;24.50;49.40;;;;;;5016957;28;20036;-59
2022/08/05 12:24:08;;;;;;;9.20;1.80;;;24.50;49.10;;;;;;5023929;28;20042;-58
2022/08/05 12:26:34;;;;;;;11.55;1.92;;;24.40;48.00;;;;;;5024381;28;20036;-58
2022/08/05 12:29:00;;;;;;;9.50;1.90;;;24.40;48.00;;;;;;5023536;28;20029;-58
2022/08/05 12:31:26;;;;;;;10.50;3.22;;;24.40;48.30;;;;;;5023021;28;20029;-59
2022/08/05 12:33:53;;;;;;;8.65;2.65;;;24.30;47.50;;;;;;5020986;28;20091;-58
2022/08/05 12:36:19;;;;;;;7.63;2.45;;;24.40;47.90;;;;;;5023717;28;20036;-59
2022/08/05 12:38:45;;;;;;;9.60;2.13;;;24.40;47.90;;;;;;5022001;28;20104;-59
2022/08/05 12:41:11;;;;;;;8.13;2.05;;;24.40;47.50;;;;;;5024154;28;20060;-58
2022/08/05 12:43:49;;;;;;;7.47;1.73;;;24.40;47.70;;;;;;5020470;28;20482;-59
2022/08/05 12:46:27;;;;;;;9.20;2.05;;;24.40;47.50;;;;;;5023316;28;20029;-59
2022/08/05 12:49:01;;;;;;;10.38;1.92;;;24.40;47.70;;;;;;5021277;28;20037;-58
2022/08/05 12:51:27;;;;;;;7.53;2.00;;;24.50;47.80;;;;;;5020720;28;20582;-58
2022/08/05 12:54:00;;;;;;;5.95;1.70;;;24.50;47.70;;;;;;5020083;28;20033;-58
2022/08/05 12:56:26;;;;;;;6.35;1.80;;;24.50;47.80;;;;;;5022006;28;20129;-58
2022/08/05 12:59:12;;;;;;;6.88;1.50;;;24.50;47.40;;;;;;5025976;28;20129;-58